Time;durP1;ratioP1;P1;durP2;ratioP2;P2;SDS_P1;SDS_P2;PMS_P1;PMS_P2;Temp;Humidity;BMP_temperature;BMP_pressure;BME280_temperature;BME280_humidity;BME280_pressure;Samples;Min_cycle;Max_cycle;Signal;HPM_P1;HPM_P2
2021/07/26 00:02:00;;;;;;;27.27;21.65;;;;;;;17.88;77.52;96822.05;1808526;77;27419;-88
2021/07/26 00:04:27;;;;;;;23.73;21.00;;;;;;;17.90;77.69;96819.88;1804962;77;25711;-90
2021/07/26 00:06:54;;;;;;;29.57;21.27;;;;;;;17.93;77.71;96816.61;1792610;77;25754;-91
2021/07/26 00:09:20;;;;;;;23.42;19.87;;;;;;;17.93;77.79;96813.06;1786806;78;25876;-88
2021/07/26 00:11:47;;;;;;;23.57;20.55;;;;;;;17.88;77.84;96800.77;1776689;77;25765;-89
2021/07/26 00:14:13;;;;;;;26.23;20.85;;;;;;;17.82;77.97;96800.50;1793325;78;28144;-89
2021/07/26 00:16:40;;;;;;;26.30;21.05;;;;;;;17.83;78.08;96788.49;1802057;77;26017;-90
2021/07/26 00:19:06;;;;;;;25.60;21.02;;;;;;;17.86;78.14;96815.25;1790125;79;25723;-89
2021/07/26 00:21:33;;;;;;;24.60;20.45;;;;;;;17.87;78.20;96830.55;1775939;79;26588;-91
2021/07/26 00:24:00;;;;;;;26.10;20.95;;;;;;;17.90;78.21;96829.98;1785685;79;25596;-91
2021/07/26 00:26:26;;;;;;;24.65;20.70;;;;;;;17.94;78.20;96833.81;1755530;80;27524;-87
2021/07/26 00:28:56;;;;;;;26.65;20.50;;;;;;;17.98;78.17;96897.73;1764523;80;25748;-90
2021/07/26 00:31:22;;;;;;;25.60;21.30;;;;;;;17.96;77.96;96962.16;1771618;79;25841;-87
2021/07/26 00:34:15;;;;;;;27.45;21.23;;;;;;;17.90;78.05;96952.30;1740445;81;25906;-87
2021/07/26 00:36:54;;;;;;;25.35;20.43;;;;;;;17.90;78.28;96956.94;1771299;79;25489;-87
2021/07/26 00:39:25;;;;;;;27.58;21.40;;;;;;;17.94;78.46;96974.44;1788183;79;27475;-85
2021/07/26 00:41:53;;;;;;;14.65;10.35;;;;;;;17.96;78.62;97003.67;1781333;79;25761;-88
2021/07/26 00:44:22;;;;;;;10.58;9.08;;;;;;;17.91;78.40;97034.50;1742814;80;25717;-85
2021/07/26 00:46:51;;;;;;;8.48;5.30;;;;;;;17.92;78.56;97050.34;1754050;79;25755;-87
2021/07/26 00:49:20;;;;;;;11.68;5.45;;;;;;;17.91;78.50;97050.05;1752407;80;25676;-93
2021/07/26 00:51:50;;;;;;;6.87;4.55;;;;;;;17.83;78.97;97058.77;1779708;79;27373;-87
2021/07/26 00:54:20;;;;;;;6.10;4.92;;;;;;;17.76;79.79;97054.08;1811167;78;25292;-85
2021/07/26 00:56:48;;;;;;;8.13;5.67;;;;;;;17.71;80.08;97041.23;1798991;77;25773;-86
2021/07/26 00:59:16;;;;;;;6.83;5.67;;;;;;;17.70;80.20;97024.58;1797488;78;25944;-86
2021/07/26 01:01:43;;;;;;;8.33;5.20;;;;;;;17.60;80.22;97006.22;1795898;77;25832;-86
2021/07/26 01:04:09;;;;;;;10.13;5.67;;;;;;;17.55;80.29;97024.47;1790843;78;28038;-92
2021/07/26 01:06:37;;;;;;;9.38;5.72;;;;;;;17.47;79.98;96982.14;1802435;78;25821;-84
2021/07/26 01:09:04;;;;;;;7.00;5.17;;;;;;;17.43;80.05;96910.08;1784181;78;25667;-86
2021/07/26 01:11:31;;;;;;;8.00;4.92;;;;;;;17.45;80.23;96922.09;1803826;77;25917;-85
2021/07/26 01:13:58;;;;;;;6.15;5.08;;;;;;;17.46;80.29;96925.92;1791033;78;26365;-87
2021/07/26 01:16:25;;;;;;;5.83;4.22;;;;;;;17.45;80.21;96881.17;1801307;77;27366;-86
2021/07/26 01:18:52;;;;;;;5.65;4.55;;;;;;;17.43;80.37;96877.34;1808466;77;25801;-84
2021/07/26 01:21:20;;;;;;;5.00;3.80;;;;;;;17.43;80.39;96884.16;1808455;78;25791;-84
2021/07/26 01:23:50;;;;;;;4.42;4.03;;;;;;;17.42;80.38;96866.69;1808066;77;25715;-84
2021/07/26 01:26:21;;;;;;;6.35;4.30;;;;;;;17.42;80.62;96842.14;1816316;77;25237;-84
2021/07/26 01:28:51;;;;;;;6.22;4.62;;;;;;;17.43;80.71;96828.23;1801376;78;27599;-86
2021/07/26 01:31:19;;;;;;;7.42;4.80;;;;;;;17.40;80.54;96824.67;1805739;77;25706;-83
2021/07/26 01:33:48;;;;;;;5.03;4.22;;;;;;;17.35;80.60;96820.58;1812601;77;25694;-85
2021/07/26 01:36:16;;;;;;;8.15;4.47;;;;;;;17.32;80.72;96825.20;1793088;77;26660;-85
2021/07/26 01:38:45;;;;;;;8.08;5.40;;;;;;;17.30;80.81;96836.92;1800541;78;25755;-84
2021/07/26 01:41:18;;;;;;;7.78;5.90;;;;;;;17.27;80.88;96836.91;1783792;77;28364;-83
2021/07/26 01:44:01;;;;;;;7.95;5.55;;;;;;;17.27;81.03;96808.81;1764318;79;25676;-84
2021/07/26 01:46:27;;;;;;;8.65;5.58;;;;;;;17.31;81.11;96802.28;1786403;77;25733;-83
2021/07/26 01:49:04;;;;;;;7.30;4.92;;;;;;;17.33;81.22;96794.66;1782396;78;25780;-83
2021/07/26 01:51:40;;;;;;;7.80;5.17;;;;;;;17.33;81.23;96788.66;1761844;79;25715;-83
2021/07/26 01:54:08;;;;;;;6.97;5.28;;;;;;;17.35;81.30;96782.39;1767414;78;27614;-83
2021/07/26 01:56:35;;;;;;;6.97;5.00;;;;;;;17.37;81.26;96776.13;1782405;77;26316;-82
2021/07/26 01:59:03;;;;;;;5.12;4.42;;;;;;;17.38;81.30;96772.85;1773865;78;26053;-82
2021/07/26 02:01:30;;;;;;;5.50;4.40;;;;;;;17.40;81.38;96774.20;1806911;78;25966;-82
2021/07/26 02:03:57;;;;;;;6.83;4.35;;;;;;;17.42;81.33;96765.20;1787233;78;26382;-82
2021/07/26 02:06:24;;;;;;;7.55;4.78;;;;;;;17.40;81.23;96761.10;1789959;78;28183;-83
2021/07/26 02:08:51;;;;;;;6.45;3.95;;;;;;;17.37;81.24;96750.20;1794362;77;26037;-83
2021/07/26 02:11:21;;;;;;;4.20;3.80;;;;;;;17.34;81.30;96761.66;1803812;77;25696;-83
2021/07/26 02:13:46;;;;;;;4.83;4.30;;;;;;;17.31;81.38;96747.19;1781182;79;26641;-83
2021/07/26 02:16:12;;;;;;;6.72;4.15;;;;;;;17.26;81.38;96752.64;1786054;78;25652;-84
2021/07/26 02:18:39;;;;;;;6.08;3.75;;;;;;;17.21;81.49;96740.34;1771849;78;27467;-83
2021/07/26 02:21:05;;;;;;;5.28;4.35;;;;;;;17.23;81.68;96741.72;1801656;78;26683;-82
2021/07/26 02:23:32;;;;;;;8.68;4.67;;;;;;;17.27;81.79;96748.80;1793944;78;25814;-83
2021/07/26 02:25:59;;;;;;;4.90;3.90;;;;;;;17.29;81.77;96732.98;1773809;79;25737;-83
2021/07/26 02:28:25;;;;;;;4.35;3.72;;;;;;;17.33;81.82;96717.73;1775758;79;25823;-83
2021/07/26 02:30:52;;;;;;;7.10;4.10;;;;;;;17.35;81.80;96711.46;1797300;77;27452;-83
2021/07/26 02:33:19;;;;;;;5.17;4.12;;;;;;;17.35;81.68;96719.65;1816929;78;25845;-84
2021/07/26 02:35:45;;;;;;;5.05;4.20;;;;;;;17.36;81.74;96726.74;1784782;79;26214;-84
2021/07/26 02:38:12;;;;;;;4.35;3.98;;;;;;;17.40;81.75;96738.73;1791310;79;26607;-84
2021/07/26 02:40:39;;;;;;;6.17;3.77;;;;;;;17.38;81.62;96738.20;1785765;79;25845;-86
2021/07/26 02:43:05;;;;;;;5.97;4.35;;;;;;;17.36;81.67;96736.30;1807318;77;27643;-86
2021/07/26 02:45:32;;;;;;;7.58;4.58;;;;;;;17.34;81.73;96748.02;1781178;78;25771;-86
2021/07/26 02:47:58;;;;;;;5.50;4.53;;;;;;;17.36;81.77;96749.94;1794950;77;25826;-85
2021/07/26 02:50:26;;;;;;;5.53;4.40;;;;;;;17.36;81.74;96762.20;1793185;78;26582;-87
2021/07/26 02:52:54;;;;;;;5.17;4.22;;;;;;;17.35;81.75;96774.20;1794363;78;25680;-87
2021/07/26 02:55:21;;;;;;;6.85;4.85;;;;;;;17.36;81.87;96770.39;1806276;77;27448;-87
2021/07/26 02:57:47;;;;;;;5.40;4.28;;;;;;;17.36;81.86;96751.30;1775306;79;26210;-89
2021/07/26 03:00:14;;;;;;;7.45;4.12;;;;;;;17.38;81.91;96754.58;1777054;78;25792;-88
2021/07/26 03:02:41;;;;;;;4.45;3.83;;;;;;;17.39;81.88;96747.22;1776196;79;25794;-86
2021/07/26 03:05:08;;;;;;;4.42;4.03;;;;;;;17.35;81.82;96753.75;1789349;78;25798;-87
2021/07/26 03:07:35;;;;;;;7.67;4.37;;;;;;;17.33;81.83;96751.01;1812354;78;27625;-87
2021/07/26 03:10:01;;;;;;;6.05;4.30;;;;;;;17.28;81.82;96743.08;1792323;77;26417;-87
2021/07/26 03:12:28;;;;;;;5.45;4.58;;;;;;;17.23;81.87;96736.81;1781037;79;25703;-89
2021/07/26 03:14:54;;;;;;;7.47;4.62;;;;;;;17.22;81.98;96759.17;1763802;80;25929;-88
2021/07/26 03:17:24;;;;;;;6.33;4.72;;;;;;;17.25;82.06;96763.28;1803015;78;26200;-86
2021/07/26 03:19:49;;;;;;;6.85;4.17;;;;;;;17.25;82.06;96758.64;1772668;79;28178;-90
2021/07/26 03:22:53;;;;;;;6.55;4.20;;;;;;;17.28;82.14;96762.72;1804021;78;25709;-90
2021/07/26 03:25:20;;;;;;;6.67;4.12;;;;;;;17.28;82.10;96757.26;1771197;78;26308;-89
2021/07/26 03:27:50;;;;;;;5.78;4.55;;;;;;;17.27;82.15;96746.07;1796820;78;26733;-90
2021/07/26 03:30:18;;;;;;;5.90;4.47;;;;;;;17.23;82.09;96752.63;1788160;79;25685;-90
2021/07/26 03:32:46;;;;;;;7.30;4.50;;;;;;;17.19;82.11;96752.06;1791089;78;28271;-89
2021/07/26 03:35:15;;;;;;;6.75;4.20;;;;;;;17.19;82.21;96747.43;1785274;77;26258;-91
2021/07/26 03:37:41;;;;;;;7.10;4.10;;;;;;;17.16;82.21;96743.05;1792693;77;25680;-89
2021/07/26 03:40:10;;;;;;;7.28;4.62;;;;;;;17.17;82.30;96750.14;1771643;78;25914;-91
2021/07/26 03:42:38;;;;;;;6.45;3.95;;;;;;;17.18;82.31;96736.78;1772710;78;25781;-89
2021/07/26 03:45:07;;;;;;;5.53;4.20;;;;;;;17.17;82.26;96741.42;1783062;78;27403;-91
2021/07/26 03:47:35;;;;;;;5.35;4.53;;;;;;;17.15;82.27;96734.05;1780768;79;25693;-92
2021/07/26 03:50:02;;;;;;;7.42;5.55;;;;;;;17.17;82.36;96739.23;1787727;79;25748;-91
2021/07/26 03:52:28;;;;;;;9.63;7.55;;;;;;;17.20;82.37;96740.07;1808607;78;26628;-91
2021/07/26 03:54:56;;;;;;;11.28;8.25;;;;;;;17.23;82.43;96739.54;1790460;79;25787;-89
2021/07/26 03:57:23;;;;;;;11.78;7.22;;;;;;;17.28;82.46;96741.72;1788412;78;28466;-89
2021/07/26 03:59:50;;;;;;;8.15;6.92;;;;;;;17.30;82.38;96744.17;1790210;79;25697;-89
2021/07/26 04:02:16;;;;;;;7.42;5.67;;;;;;;17.31;82.40;96740.36;1814308;78;25851;-90
2021/07/26 04:04:44;;;;;;;6.33;4.83;;;;;;;17.33;82.49;96738.19;1811855;77;26085;-90
2021/07/26 04:07:18;;;;;;;5.50;4.03;;;;;;;17.35;82.51;96746.11;1794794;77;25483;-89
2021/07/26 04:09:43;;;;;;;4.45;3.58;;;;;;;17.33;82.40;96749.09;1815020;77;27488;-90
2021/07/26 04:12:10;;;;;;;4.30;3.90;;;;;;;17.29;82.40;96758.90;1806449;77;25744;-90
2021/07/26 04:14:39;;;;;;;5.70;4.20;;;;;;;17.26;82.47;96763.02;1775214;79;25780;-90
2021/07/26 04:17:04;;;;;;;7.53;4.60;;;;;;;17.31;82.60;96761.36;1769992;79;25795;-90
2021/07/26 04:19:31;;;;;;;7.42;5.05;;;;;;;17.34;82.62;96758.92;1770760;80;25801;-90
2021/07/26 04:21:58;;;;;;;24.72;5.60;;;;;;;17.37;82.59;96753.48;1749966;79;28225;-88
2021/07/26 04:24:26;;;;;;;8.18;4.70;;;;;;;17.41;82.67;96762.20;1767830;78;25742;-89
2021/07/26 04:26:53;;;;;;;7.47;5.33;;;;;;;17.44;82.65;96758.94;1778040;79;25945;-87
2021/07/26 04:29:20;;;;;;;7.22;5.37;;;;;;;17.44;82.61;96758.94;1740953;80;25758;-88
2021/07/26 04:31:47;;;;;;;6.60;5.20;;;;;;;17.48;82.71;96758.68;1736264;82;25700;-88
2021/07/26 04:34:14;;;;;;;8.15;5.62;;;;;;;17.53;82.75;96757.31;1745054;79;28319;-89
2021/07/26 04:36:41;;;;;;;6.65;5.00;;;;;;;17.58;82.80;96751.87;1798982;78;25747;-88
2021/07/26 04:39:08;;;;;;;6.53;5.00;;;;;;;17.62;82.80;96754.87;1749819;80;25733;-87
2021/07/26 04:41:34;;;;;;;5.70;5.10;;;;;;;17.67;82.77;96754.08;1768061;80;26413;-87
2021/07/26 04:44:01;;;;;;;6.00;4.80;;;;;;;17.70;82.75;96761.19;1739260;79;25560;-87
2021/07/26 04:46:28;;;;;;;8.23;5.05;;;;;;;17.73;82.75;96747.00;1746816;79;27639;-87
2021/07/26 04:48:54;;;;;;;5.47;4.97;;;;;;;17.77;82.73;96754.89;1729362;81;25285;-87
2021/07/26 04:51:21;;;;;;;7.60;4.92;;;;;;;17.77;82.73;96754.08;1728996;80;25821;-87
2021/07/26 04:53:47;;;;;;;5.28;4.72;;;;;;;17.78;82.79;96755.72;1744689;80;25895;-87
2021/07/26 04:56:14;;;;;;;6.17;4.25;;;;;;;17.80;82.83;96751.63;1771279;78;25824;-87
2021/07/26 04:58:40;;;;;;;7.53;4.75;;;;;;;17.85;82.85;96749.45;1790533;78;27381;-87
2021/07/26 05:01:07;;;;;;;8.35;5.08;;;;;;;17.88;82.88;96751.07;1795846;78;25836;-88
2021/07/26 05:03:34;;;;;;;6.37;4.50;;;;;;;17.90;82.87;96748.89;1797148;78;25817;-87
2021/07/26 05:06:00;;;;;;;5.30;4.03;;;;;;;17.93;82.83;96755.18;1781588;79;26612;-87
2021/07/26 05:08:27;;;;;;;5.05;3.72;;;;;;;17.97;82.82;96751.36;1782399;78;25741;-87
2021/07/26 05:10:53;;;;;;;4.03;3.52;;;;;;;17.99;82.76;96754.06;1808552;77;27306;-87
2021/07/26 05:13:20;;;;;;;4.33;3.45;;;;;;;18.03;82.75;96761.72;1810872;78;25664;-88
2021/07/26 05:15:46;;;;;;;7.42;4.47;;;;;;;18.04;82.67;96762.81;1776529;78;25779;-88
2021/07/26 05:18:13;;;;;;;7.05;4.45;;;;;;;18.06;82.62;96766.09;1769414;77;26383;-87
2021/07/26 05:20:39;;;;;;;7.83;5.00;;;;;;;18.09;82.60;96768.28;1778354;79;25844;-87
2021/07/26 05:23:11;;;;;;;8.58;5.12;;;;;;;18.11;82.53;96774.30;1778016;79;28471;-87
2021/07/26 05:25:44;;;;;;;5.50;4.58;;;;;;;18.11;82.43;96771.56;1783030;79;25880;-88
2021/07/26 05:28:11;;;;;;;7.05;4.58;;;;;;;18.12;82.49;96784.10;1767226;79;26204;-88
2021/07/26 05:30:38;;;;;;;7.90;4.22;;;;;;;18.11;82.46;96783.86;1726289;80;26223;-88
2021/07/26 05:33:05;;;;;;;7.00;3.60;;;;;;;18.09;82.47;96779.21;1726318;82;25787;-88
2021/07/26 05:35:32;;;;;;;7.83;3.87;;;;;;;18.08;82.47;96785.77;1763462;79;27838;-88
2021/07/26 05:38:04;;;;;;;9.00;4.05;;;;;;;18.05;82.52;96790.40;1742824;80;25249;-88
2021/07/26 05:40:31;;;;;;;;;;;;;;;18.06;82.55;96787.95;1745545;81;25318;-87
2021/07/26 05:42:58;;;;;;;7.83;4.20;;;;;;;18.10;82.67;96800.52;1744428;80;26430;-87
2021/07/26 05:45:24;;;;;;;8.63;4.45;;;;;;;18.10;82.63;96798.60;1780329;79;25796;-87
2021/07/26 05:47:51;;;;;;;9.05;4.75;;;;;;;18.13;82.53;96798.58;1777270;79;27535;-88
2021/07/26 05:50:19;;;;;;;7.95;4.60;;;;;;;18.10;82.36;96798.60;1771649;79;25714;-87
2021/07/26 05:52:49;;;;;;;7.83;4.95;;;;;;;18.13;82.50;96796.67;1731214;82;26449;-87
2021/07/26 05:55:16;;;;;;;5.30;4.70;;;;;;;18.18;82.24;96793.95;1732157;81;25950;-89
2021/07/26 05:57:47;;;;;;;5.67;4.42;;;;;;;18.14;81.92;96798.31;1772206;79;25788;-88
2021/07/26 06:00:24;;;;;;;7.15;4.50;;;;;;;18.17;81.99;96805.96;1799949;77;27368;-88
2021/07/26 06:02:43;;;;;;;4.87;4.22;;;;;;;18.20;81.91;96819.08;1781748;78;25251;-88
2021/07/26 06:05:10;;;;;;;5.78;4.37;;;;;;;18.25;81.85;96810.86;1774021;77;25665;-88
2021/07/26 06:07:37;;;;;;;4.90;4.22;;;;;;;18.32;81.88;96810.05;1794505;78;25808;-87
2021/07/26 06:10:08;;;;;;;7.28;4.08;;;;;;;18.37;81.80;96806.48;1816169;78;26485;-88
2021/07/26 06:12:35;;;;;;;5.87;4.58;;;;;;;18.41;81.79;96814.41;1788054;77;27425;-88
2021/07/26 06:15:02;;;;;;;6.58;4.62;;;;;;;18.47;81.77;96824.80;1792232;78;25727;-88
2021/07/26 06:17:28;;;;;;;4.67;4.12;;;;;;;18.52;81.87;96823.41;1813048;77;25885;-86
2021/07/26 06:19:55;;;;;;;4.75;4.05;;;;;;;18.58;81.75;96825.08;1783682;79;26447;-87
2021/07/26 06:22:21;;;;;;;5.50;4.40;;;;;;;18.63;81.57;96831.34;1806003;78;25703;-86
2021/07/26 06:24:48;;;;;;;5.25;4.50;;;;;;;18.69;81.56;96836.27;1786670;79;27524;-86
2021/07/26 06:27:15;;;;;;;7.05;4.83;;;;;;;18.75;81.49;96841.98;1779629;77;25722;-85
2021/07/26 06:29:42;;;;;;;5.78;4.20;;;;;;;18.82;81.60;96844.44;1784832;78;25804;-85
2021/07/26 06:32:08;;;;;;;7.75;5.08;;;;;;;18.90;81.86;96844.68;1775377;78;25787;-86
2021/07/26 06:34:35;;;;;;;6.85;4.75;;;;;;;18.99;82.06;96847.11;1799488;77;25302;-86
2021/07/26 06:37:01;;;;;;;5.50;4.58;;;;;;;19.06;81.96;96854.48;1811312;78;27375;-86
2021/07/26 06:39:28;;;;;;;8.38;4.92;;;;;;;19.13;81.65;96859.64;1768837;79;26369;-86
2021/07/26 06:41:54;;;;;;;7.00;5.00;;;;;;;19.21;81.55;96869.19;1784846;78;26360;-86
2021/07/26 06:44:21;;;;;;;5.03;4.37;;;;;;;19.29;81.53;96863.97;1786903;78;26656;-86
2021/07/26 06:46:48;;;;;;;5.97;4.60;;;;;;;19.37;81.29;96862.56;1783297;79;25744;-87
2021/07/26 06:49:16;;;;;;;5.72;4.83;;;;;;;19.44;81.36;96861.73;1788793;78;27569;-85
2021/07/26 06:51:42;;;;;;;6.55;5.47;;;;;;;19.51;81.13;96858.70;1802439;77;25885;-85
2021/07/26 06:54:09;;;;;;;8.15;4.85;;;;;;;19.58;81.08;96860.02;1819771;77;25698;-84
2021/07/26 06:56:36;;;;;;;8.50;4.90;;;;;;;19.64;80.80;96858.09;1811433;77;26320;-84
2021/07/26 06:59:02;;;;;;;7.40;5.12;;;;;;;19.66;80.58;96858.63;1808735;78;26315;-84
2021/07/26 07:01:29;;;;;;;6.87;5.42;;;;;;;19.68;80.50;96857.22;1768666;78;27513;-84
2021/07/26 07:03:55;;;;;;;7.83;5.67;;;;;;;19.76;80.66;96853.09;1803957;77;25433;-84
2021/07/26 07:06:23;;;;;;;6.87;5.00;;;;;;;19.85;80.61;96857.41;1795383;77;25281;-85
2021/07/26 07:08:50;;;;;;;5.80;5.15;;;;;;;19.95;80.69;96863.63;1805304;78;25890;-83
2021/07/26 07:11:18;;;;;;;8.10;5.05;;;;;;;20.07;80.47;96861.91;1792570;79;25782;-83
2021/07/26 07:13:50;;;;;;;7.37;5.47;;;;;;;20.22;80.41;96854.95;1736727;80;27627;-84
2021/07/26 07:16:21;;;;;;;6.00;4.73;;;;;;;20.35;80.31;96864.44;1724686;80;26301;-83
2021/07/26 07:18:51;;;;;;;5.65;4.97;;;;;;;20.51;80.38;96870.66;1768521;79;25774;-84
2021/07/26 07:21:21;;;;;;;7.85;5.75;;;;;;;20.64;80.47;96871.36;1798363;79;25827;-83
2021/07/26 07:23:50;;;;;;;5.83;4.90;;;;;;;20.75;80.37;96870.16;1795185;78;25676;-82
2021/07/26 07:26:18;;;;;;;6.97;5.33;;;;;;;20.88;80.47;96882.38;1799673;79;28211;-83
2021/07/26 07:28:45;;;;;;;5.80;5.08;;;;;;;20.99;79.82;96875.12;1779465;79;25795;-83
2021/07/26 07:31:13;;;;;;;8.08;5.40;;;;;;;21.12;79.41;96874.42;1789967;78;25727;-83
2021/07/26 07:33:40;;;;;;;7.33;5.10;;;;;;;21.28;79.37;96874.27;1766594;79;26657;-84
2021/07/26 07:36:07;;;;;;;7.83;5.80;;;;;;;21.42;79.15;96876.02;1768303;80;25682;-85
2021/07/26 07:38:34;;;;;;;6.17;5.55;;;;;;;21.55;78.90;96880.80;1768117;80;28163;-85
2021/07/26 07:41:02;;;;;;;6.15;5.55;;;;;;;21.64;78.40;96883.69;1767977;79;25736;-84
2021/07/26 07:43:29;;;;;;;6.92;6.20;;;;;;;21.69;77.97;96885.02;1767938;79;26304;-84
2021/07/26 07:45:56;;;;;;;7.03;6.12;;;;;;;21.75;78.07;96887.12;1784539;79;26733;-85
2021/07/26 07:48:25;;;;;;;7.08;5.83;;;;;;;21.80;78.21;96879.64;1796007;78;25822;-83
2021/07/26 07:50:53;;;;;;;7.97;6.15;;;;;;;21.89;78.04;96877.85;1782349;79;27529;-84
2021/07/26 07:53:20;;;;;;;6.92;5.72;;;;;;;22.23;78.35;96878.20;1780880;79;25768;-85
2021/07/26 07:55:47;;;;;;;12.93;6.30;;;;;;;22.61;78.08;96877.03;1763343;79;25701;-83
2021/07/26 07:58:15;;;;;;;7.08;6.37;;;;;;;22.99;77.50;96872.81;1762638;79;26468;-85
2021/07/26 08:00:42;;;;;;;9.43;5.97;;;;;;;23.21;76.97;96874.31;1775006;79;25699;-85
2021/07/26 08:03:08;;;;;;;7.95;6.58;;;;;;;23.41;76.37;96883.31;1775445;79;27355;-86
2021/07/26 08:05:35;;;;;;;6.92;6.03;;;;;;;23.54;76.03;96888.04;1789732;79;25788;-84
2021/07/26 08:08:02;;;;;;;7.03;6.28;;;;;;;23.77;75.61;96878.72;1794438;79;25828;-85
2021/07/26 08:10:28;;;;;;;8.68;6.28;;;;;;;24.14;75.04;96883.13;1774748;79;25739;-89
2021/07/26 08:12:55;;;;;;;8.83;6.28;;;;;;;24.52;74.35;96886.93;1758276;79;25740;-85
2021/07/26 08:15:22;;;;;;;7.50;6.47;;;;;;;24.88;73.85;96889.61;1693884;82;27357;-86
2021/07/26 08:17:48;;;;;;;9.23;7.10;;;;;;;25.13;73.03;96893.11;1740068;81;25776;-86
2021/07/26 08:20:17;;;;;;;8.63;7.72;;;;;;;25.26;72.52;96889.44;1772993;80;25874;-85
2021/07/26 08:22:46;;;;;;;8.75;7.22;;;;;;;25.24;71.96;96892.30;1762142;80;26244;-86
2021/07/26 08:25:14;;;;;;;9.03;7.40;;;;;;;25.39;71.32;96896.81;1768062;79;25675;-83
2021/07/26 08:27:56;;;;;;;8.20;7.40;;;;;;;25.53;70.65;96895.89;1788434;79;27361;-86
2021/07/26 08:30:26;;;;;;;9.10;7.35;;;;;;;25.51;70.17;96895.39;1766141;79;26387;-91
2021/07/26 08:32:53;;;;;;;9.00;8.10;;;;;;;25.53;69.89;96901.41;1764633;79;25772;-88
2021/07/26 08:35:21;;;;;;;13.55;7.60;;;;;;;25.59;69.72;96898.77;1771865;79;25630;-91
2021/07/26 08:37:49;;;;;;;9.40;8.10;;;;;;;25.53;69.26;96894.51;1791065;79;25838;-93
2021/07/26 08:40:18;;;;;;;9.33;8.33;;;;;;;25.54;69.40;96896.14;1779390;79;27388;-91
2021/07/26 08:42:45;;;;;;;10.70;8.05;;;;;;;25.62;69.25;96899.52;1777373;79;25800;-94
2021/07/26 08:45:11;;;;;;;9.10;7.95;;;;;;;25.79;69.00;96886.58;1764136;79;25697;-89
2021/07/26 08:47:44;;;;;;;9.18;8.28;;;;;;;26.05;68.82;96888.01;1762029;79;26482;-90
2021/07/26 08:50:16;;;;;;;11.83;8.50;;;;;;;26.32;68.59;96886.93;1761821;79;26250;-92
2021/07/26 08:52:48;;;;;;;10.18;7.62;;;;;;;26.62;68.15;96883.73;1784088;79;27461;-92
2021/07/26 08:55:17;;;;;;;9.85;8.35;;;;;;;26.87;67.36;96870.41;1774818;79;25736;-92
2021/07/26 08:57:47;;;;;;;9.08;8.15;;;;;;;27.11;66.90;96876.00;1754413;80;25831;-91
2021/07/26 09:00:16;;;;;;;13.93;8.30;;;;;;;27.36;66.60;96873.71;1763403;79;25774;-91
2021/07/26 09:02:43;;;;;;;8.93;8.03;;;;;;;27.57;66.75;96877.39;1757974;80;25943;-92
2021/07/26 09:05:12;;;;;;;9.53;8.58;;;;;;;27.83;65.94;96876.44;1768092;79;27360;-89
2021/07/26 09:07:44;;;;;;;9.30;8.50;;;;;;;27.84;65.53;96875.30;1760089;79;25769;-91
2021/07/26 09:10:23;;;;;;;10.13;9.13;;;;;;;27.86;65.38;96877.98;1771413;80;26453;-91
2021/07/26 09:12:53;;;;;;;9.75;8.18;;;;;;;28.06;65.35;96879.14;1730882;82;25806;-90
2021/07/26 09:15:37;;;;;;;9.30;8.23;;;;;;;28.43;64.70;96874.65;1733272;81;25642;-88
2021/07/26 09:18:07;;;;;;;11.48;8.43;;;;;;;28.54;64.40;96877.25;1769375;78;27463;-91
2021/07/26 09:20:39;;;;;;;10.58;9.18;;;;;;;28.46;63.71;96871.78;1790248;77;25929;-89
2021/07/26 09:23:19;;;;;;;9.38;8.48;;;;;;;28.58;63.03;96857.95;1797729;78;26380;-92
2021/07/26 09:25:51;;;;;;;12.68;9.28;;;;;;;28.62;62.33;96881.08;1803966;78;26357;-92
2021/07/26 09:28:20;;;;;;;9.10;7.95;;;;;;;28.65;62.22;96881.80;1790939;77;25766;-92
2021/07/26 09:30:55;;;;;;;9.70;8.80;;;;;;;28.44;61.65;96876.84;1803070;77;27579;-89
2021/07/26 09:33:26;;;;;;;13.48;9.25;;;;;;;28.33;61.26;96897.84;1759683;78;25849;-91
2021/07/26 09:36:14;;;;;;;11.30;9.38;;;;;;;28.37;60.98;96895.45;1782693;78;25783;-93
2021/07/26 09:38:56;;;;;;;9.28;8.43;;;;;;;28.58;60.42;96881.55;1761924;79;26683;-90
2021/07/26 09:41:47;;;;;;;9.88;8.75;;;;;;;28.90;59.84;96882.16;1795710;77;25830;-91
2021/07/26 09:44:18;;;;;;;8.45;7.28;;;;;;;29.13;59.08;96888.70;1778400;77;27383;-91
2021/07/26 09:46:45;;;;;;;9.53;7.75;;;;;;;29.29;58.23;96890.48;1776700;78;25852;-91
2021/07/26 09:49:15;;;;;;;8.73;7.55;;;;;;;29.52;57.59;96896.45;1803762;78;25809;-89
2021/07/26 09:51:43;;;;;;;8.63;7.20;;;;;;;29.60;55.84;96898.30;1812146;78;25749;-93
2021/07/26 09:54:10;;;;;;;9.98;7.50;;;;;;;29.48;55.17;96899.68;1812373;78;25668;-89
2021/07/26 09:56:37;;;;;;;8.25;7.45;;;;;;;29.57;54.96;96907.36;1786789;79;27348;-93
2021/07/26 09:59:04;;;;;;;11.10;7.33;;;;;;;29.61;54.02;96906.06;1782812;79;25684;-91
2021/07/26 10:01:31;;;;;;;8.75;7.85;;;;;;;29.68;54.04;96905.74;1763376;79;25773;-93
2021/07/26 10:03:58;;;;;;;11.03;7.62;;;;;;;29.68;53.56;96907.71;1741572;80;25707;-96
2021/07/26 10:06:26;;;;;;;8.28;7.47;;;;;;;29.74;53.86;96909.91;1763298;79;25704;-93
2021/07/26 10:08:55;;;;;;;9.63;7.15;;;;;;;29.90;53.38;96910.60;1742433;80;27491;-91
2021/07/26 10:11:23;;;;;;;8.85;7.85;;;;;;;29.97;52.79;96909.45;1754686;81;25271;-96
2021/07/26 10:13:51;;;;;;;8.20;7.25;;;;;;;30.09;52.68;96912.23;1754740;79;25752;-87
2021/07/26 10:16:19;;;;;;;9.83;7.58;;;;;;;30.22;51.82;96908.27;1778113;79;25918;-94
2021/07/26 10:18:52;;;;;;;8.28;7.58;;;;;;;30.17;50.36;96921.05;1761801;79;25713;-94
2021/07/26 10:21:23;;;;;;;9.30;8.28;;;;;;;30.15;50.24;96913.63;1768435;80;29263;-90
2021/07/26 10:23:56;;;;;;;8.90;8.00;;;;;;;30.17;50.52;96916.88;1742443;80;26299;-90
2021/07/26 10:26:36;;;;;;;8.75;7.75;;;;;;;30.28;50.48;96918.60;1792697;79;26021;-96
2021/07/26 10:29:03;;;;;;;7.75;6.95;;;;;;;30.36;49.81;96918.45;1793228;79;25895;-91
2021/07/26 10:31:36;;;;;;;8.45;7.42;;;;;;;30.44;50.12;96916.11;1771234;79;25827;-89
2021/07/26 10:34:15;;;;;;;8.65;7.78;;;;;;;30.55;49.50;96926.81;1776478;79;27608;-90
2021/07/26 10:36:48;;;;;;;9.70;7.10;;;;;;;30.41;48.22;96918.81;1762767;79;25787;-88
2021/07/26 10:39:23;;;;;;;9.40;7.22;;;;;;;30.28;48.91;96920.80;1772614;79;25835;-93
2021/07/26 10:41:55;;;;;;;8.00;7.25;;;;;;;30.23;48.86;96914.08;1764547;80;25768;-94
2021/07/26 10:44:27;;;;;;;7.97;7.22;;;;;;;30.32;48.72;96916.14;1739844;81;25833;-93
2021/07/26 10:47:08;;;;;;;7.10;6.50;;;;;;;30.28;47.92;96910.25;1745541;80;27400;-96
2021/07/26 10:49:53;;;;;;;7.80;6.95;;;;;;;30.14;48.33;96916.18;1747070;79;25831;-93
2021/07/26 10:52:28;;;;;;;6.75;5.70;;;;;;;30.18;48.25;96913.52;1764138;79;25753;-88
2021/07/26 10:54:58;;;;;;;11.00;6.22;;;;;;;30.28;47.70;96913.84;1744405;80;25948;-95
2021/07/26 10:57:46;;;;;;;7.22;6.53;;;;;;;30.32;46.86;96909.75;1744564;79;25709;-95
2021/07/26 11:00:22;;;;;;;8.23;6.35;;;;;;;30.29;47.16;96904.33;1746378;79;27260;-93
2021/07/26 11:02:49;;;;;;;8.45;6.75;;;;;;;30.43;47.29;96898.39;1760607;79;25390;-92
2021/07/26 11:05:30;;;;;;;8.03;6.47;;;;;;;30.60;47.27;96912.63;1738652;79;25310;-92
2021/07/26 11:08:20;;;;;;;7.03;6.12;;;;;;;30.67;46.92;96903.10;1744929;80;25766;-90
2021/07/26 11:11:00;;;;;;;7.45;6.75;;;;;;;30.77;46.92;96897.84;1766388;79;25780;-92
2021/07/26 11:13:50;;;;;;;6.83;6.20;;;;;;;30.80;46.84;96899.08;1767224;79;27407;-87
2021/07/26 11:16:51;;;;;;;7.05;6.35;;;;;;;30.91;46.52;96899.41;1781365;78;25543;-93
2021/07/26 11:19:44;;;;;;;9.77;6.93;;;;;;;30.88;46.47;96892.56;1770785;79;25776;-91
2021/07/26 11:22:29;;;;;;;6.97;6.28;;;;;;;30.78;46.38;96893.08;1795184;78;25920;-90
2021/07/26 11:25:08;;;;;;;8.40;5.85;;;;;;;30.69;46.05;96884.03;1790719;77;25683;-94
2021/07/26 11:27:40;;;;;;;9.90;6.20;;;;;;;30.73;45.77;96886.34;1778283;79;27427;-93
2021/07/26 11:30:08;;;;;;;7.85;5.95;;;;;;;30.73;45.75;96884.95;1750588;80;25844;-94
2021/07/26 11:32:36;;;;;;;10.75;6.40;;;;;;;30.71;45.43;96890.06;1748639;80;25721;-92
2021/07/26 11:35:04;;;;;;;8.15;5.50;;;;;;;30.70;45.60;96894.83;1751770;80;25872;-93
2021/07/26 11:37:36;;;;;;;7.78;5.92;;;;;;;30.71;44.42;96890.06;1774890;79;26585;-94
2021/07/26 11:40:09;;;;;;;;;;;;;;;30.68;43.70;96891.58;1734282;80;27427;-93
2021/07/26 11:42:42;;;;;;;5.92;5.33;;;;;;;30.74;43.56;96896.33;1784741;77;25898;-93